Hartford, Connecticut
Traffic Map
Current Weather Conditions
Hartford, Connecticut
Clear
Clear
20°
Feels Like: 20°
Wind Chill: 20° Ceiling: Unl
Heat Index: 20° Visibility: 8mi
Dew Point: 17° Wind: 0mph
Humidity: 89% Direction: ° ()
Pressure: 30.09in Gusts: 0mph
Raw Report DataKHFD 100953Z AUTO 00000KT 8SM CLR M07/M08 A3009 RMK AO2 SLP189 T10671083
Traffic Incident Summary
Active as of:
Severity:
Category:
InformationThere was an issue retrieving the traffic information for this location. Please try a different location or try again shortly.
Advertisements